22  °C
Temperature
72  °F
Temperature
52  °F
 Dewpoint
11  °C
  Dewpoint
 %
 Humidity
  Temperature
16  km/h
Wind Speed
9  kts
Wind Speed
10  mph
Wind Speed
0  m/s
Wind Speed
280°
Due West

Wind Speed
Clear
Conditions
Pressure 1017.92 (hPa) - 30.06 (inHG)
Visibility 10.0 (km) - 6.2 (mi)

Sky Conditions
EPWR
Location 15 km (9.32 mi)
Metar :EPWR 151630Z 28009KT CAVOK 22/11 Q1018
Sun 15th September 17:30 pm

Nearest Airport
https://www.checkwx.com/weather/EPWR
  Metar Aviation API Data Provided by https://www.checkwx.com/ Original CSS/SVG/PHP scripts by weather34.com © 2015-2019